Time;durP1;ratioP1;P1;durP2;ratioP2;P2;SDS_P1;SDS_P2;PMS_P1;PMS_P2;Temp;Humidity;BMP_temperature;BMP_pressure;BME280_temperature;BME280_humidity;BME280_pressure;Samples;Min_cycle;Max_cycle;Signal;HPM_P1;HPM_P2
2022/03/04 00:01:19;;;;;;;9.87;7.70;;;7.70;1.00;;;;;;5091041;28;20444;-79
2022/03/04 00:03:48;;;;;;;11.07;8.30;;;7.70;1.00;;;;;;5090107;28;20450;-78
2022/03/04 00:06:16;;;;;;;11.43;8.23;;;7.60;1.00;;;;;;5092589;28;20556;-79
2022/03/04 00:08:44;;;;;;;13.43;9.13;;;7.70;1.00;;;;;;5088635;28;20468;-78
2022/03/04 00:11:13;;;;;;;15.57;8.70;;;7.60;1.00;;;;;;5089310;28;20525;-78
2022/03/04 00:13:41;;;;;;;11.80;8.53;;;7.70;1.00;;;;;;5084828;28;20533;-80
2022/03/04 00:16:11;;;;;;;12.00;7.80;;;7.60;1.00;;;;;;5090399;28;20460;-79
2022/03/04 00:18:39;;;;;;;10.63;8.23;;;7.90;1.00;;;;;;5086823;28;20567;-78
2022/03/04 00:21:08;;;;;;;19.70;9.30;;;7.60;1.00;;;;;;5086520;28;20927;-77
2022/03/04 00:23:36;;;;;;;12.17;8.40;;;7.50;1.00;;;;;;5086964;28;20962;-78
2022/03/04 00:26:04;;;;;;;13.07;7.30;;;7.50;1.00;;;;;;5090476;28;20507;-79
2022/03/04 00:28:33;;;;;;;9.10;7.83;;;7.50;1.00;;;;;;5087162;28;21225;-78
2022/03/04 00:31:02;;;;;;;9.60;7.03;;;7.50;1.00;;;;;;5087492;28;20471;-77
2022/03/04 00:33:32;;;;;;;11.80;7.57;;;7.40;1.00;;;;;;5086368;28;20454;-77
2022/03/04 00:36:00;;;;;;;14.37;9.10;;;7.40;1.00;;;;;;5088858;28;20486;-77
2022/03/04 00:38:28;;;;;;;11.80;7.53;;;7.40;1.00;;;;;;5086108;28;20878;-78
2022/03/04 00:40:57;;;;;;;12.03;7.37;;;7.30;1.00;;;;;;5088042;28;20460;-79
2022/03/04 00:43:25;;;;;;;10.33;8.00;;;7.40;1.00;;;;;;5087448;28;20470;-79
2022/03/04 00:45:53;;;;;;;17.50;8.17;;;7.30;1.00;;;;;;5086939;28;20515;-79
2022/03/04 00:48:22;;;;;;;11.90;7.40;;;7.30;1.00;;;;;;5083780;28;20458;-78
2022/03/04 00:50:51;;;;;;;16.37;9.60;;;7.30;1.00;;;;;;5082330;28;20899;-78
2022/03/04 00:53:19;;;;;;;12.10;7.70;;;7.20;1.00;;;;;;5083773;28;20458;-78
2022/03/04 00:55:48;;;;;;;12.67;7.50;;;7.20;1.00;;;;;;5085191;28;20480;-79
2022/03/04 00:58:16;;;;;;;14.10;9.73;;;7.30;1.00;;;;;;5076728;28;20452;-79
2022/03/04 01:00:44;;;;;;;11.87;7.80;;;7.10;1.00;;;;;;5088158;28;20443;-79
2022/03/04 01:03:12;;;;;;;14.33;7.80;;;7.10;1.00;;;;;;5088740;28;20914;-79
2022/03/04 01:05:41;;;;;;;11.30;8.40;;;7.10;1.00;;;;;;5088276;28;20485;-79
2022/03/04 01:08:11;;;;;;;9.77;8.03;;;7.10;1.00;;;;;;5078475;28;20458;-77
2022/03/04 01:10:39;;;;;;;9.60;6.90;;;7.10;1.00;;;;;;5086908;28;20510;-78
2022/03/04 01:13:08;;;;;;;10.90;7.60;;;7.10;1.00;;;;;;5089061;28;20458;-79
2022/03/04 01:15:40;;;;;;;15.63;8.27;;;7.00;1.00;;;;;;5084675;28;20562;-78
2022/03/04 01:18:08;;;;;;;10.00;7.53;;;6.90;1.00;;;;;;5086221;28;21093;-80
2022/03/04 01:20:37;;;;;;;13.53;7.30;;;6.90;1.00;;;;;;5088431;28;20486;-78
2022/03/04 01:23:05;;;;;;;12.50;8.30;;;6.90;1.00;;;;;;5088681;28;20512;-78
2022/03/04 01:25:34;;;;;;;10.80;7.70;;;6.90;1.00;;;;;;5084277;28;20473;-78
2022/03/04 01:28:03;;;;;;;12.87;7.77;;;6.90;1.00;;;;;;5081771;28;20550;-79
2022/03/04 01:30:31;;;;;;;10.10;6.80;;;6.90;1.00;;;;;;5081323;28;20514;-79
2022/03/04 01:32:59;;;;;;;11.27;6.57;;;6.90;1.00;;;;;;5093440;28;20482;-79
2022/03/04 01:35:29;;;;;;;13.27;7.40;;;6.80;1.00;;;;;;5085435;28;20542;-78
2022/03/04 01:37:57;;;;;;;9.40;7.50;;;6.80;1.00;;;;;;5087620;28;20458;-78
2022/03/04 01:40:25;;;;;;;11.90;7.80;;;6.80;1.00;;;;;;5089599;28;20453;-78
2022/03/04 01:42:54;;;;;;;9.27;7.30;;;6.60;1.00;;;;;;5087351;28;20461;-78
2022/03/04 01:45:23;;;;;;;10.63;7.33;;;6.50;1.00;;;;;;5087597;28;20476;-79
2022/03/04 01:47:51;;;;;;;15.27;6.83;;;6.40;1.00;;;;;;5086520;28;20446;-78
2022/03/04 01:50:20;;;;;;;11.00;8.00;;;6.50;1.00;;;;;;5088073;28;21181;-78
2022/03/04 01:52:48;;;;;;;9.50;6.83;;;6.60;1.00;;;;;;5084471;28;20482;-79
2022/03/04 01:55:16;;;;;;;8.93;6.63;;;6.60;1.00;;;;;;5085725;28;20519;-78
2022/03/04 01:57:44;;;;;;;14.17;7.50;;;6.60;1.00;;;;;;5084907;28;20457;-79
2022/03/04 02:00:15;;;;;;;10.27;7.93;;;6.60;1.00;;;;;;5085979;28;20446;-79
2022/03/04 02:02:45;;;;;;;13.80;7.87;;;6.60;1.00;;;;;;5086274;28;20458;-78
2022/03/04 02:05:14;;;;;;;9.50;6.67;;;6.60;1.00;;;;;;5088672;28;20531;-78
2022/03/04 02:07:43;;;;;;;13.87;7.70;;;6.50;1.00;;;;;;5084825;28;20454;-78
2022/03/04 02:10:12;;;;;;;12.03;7.20;;;6.50;1.00;;;;;;5087408;28;20460;-79
2022/03/04 02:12:40;;;;;;;11.23;6.63;;;6.50;1.00;;;;;;5082714;28;20472;-78
2022/03/04 02:15:09;;;;;;;10.90;7.60;;;6.50;1.00;;;;;;5084174;28;20493;-77
2022/03/04 02:17:39;;;;;;;10.63;6.93;;;6.40;1.00;;;;;;5084849;28;20458;-78
2022/03/04 02:20:08;;;;;;;11.03;7.03;;;6.40;1.00;;;;;;5085155;28;20466;-79
2022/03/04 02:22:38;;;;;;;12.13;8.20;;;6.30;1.00;;;;;;5086613;28;20457;-80
2022/03/04 02:25:07;;;;;;;11.60;7.23;;;6.30;1.00;;;;;;5082169;28;22528;-78
2022/03/04 02:27:35;;;;;;;14.30;7.20;;;6.30;1.00;;;;;;5084651;28;20449;-78
2022/03/04 02:30:05;;;;;;;11.07;7.97;;;6.20;1.00;;;;;;5086503;28;20969;-77
2022/03/04 02:32:33;;;;;;;14.17;7.67;;;6.20;1.00;;;;;;5085203;28;20474;-77
2022/03/04 02:35:03;;;;;;;10.47;6.93;;;6.20;1.00;;;;;;5078444;28;20528;-78
2022/03/04 02:37:31;;;;;;;12.30;7.67;;;6.20;1.00;;;;;;5079733;28;20489;-77
2022/03/04 02:40:01;;;;;;;11.80;6.87;;;6.20;1.00;;;;;;5084926;28;20465;-78
2022/03/04 02:42:29;;;;;;;10.80;7.40;;;6.00;1.00;;;;;;5083521;28;20826;-77
2022/03/04 02:44:57;;;;;;;11.47;6.07;;;6.00;1.00;;;;;;5086968;28;20488;-77
2022/03/04 02:47:25;;;;;;;9.80;7.00;;;6.00;1.00;;;;;;5085329;28;20849;-76
2022/03/04 02:49:53;;;;;;;14.37;7.37;;;5.90;1.00;;;;;;5085270;28;20981;-78
2022/03/04 02:52:21;;;;;;;9.97;6.67;;;5.80;1.00;;;;;;5091119;28;20464;-77
2022/03/04 02:54:49;;;;;;;11.17;7.17;;;5.90;1.00;;;;;;5087696;28;20507;-77
2022/03/04 02:57:19;;;;;;;11.70;7.43;;;6.00;1.00;;;;;;5088641;28;20449;-78
2022/03/04 02:59:47;;;;;;;13.57;7.17;;;6.00;1.00;;;;;;5085185;28;20453;-77
2022/03/04 03:02:15;;;;;;;9.47;6.80;;;6.00;1.00;;;;;;5087818;28;20804;-78
2022/03/04 03:04:44;;;;;;;12.07;8.30;;;5.90;1.00;;;;;;5087308;28;20457;-78
2022/03/04 03:07:12;;;;;;;10.90;7.20;;;6.00;1.00;;;;;;5087283;28;20507;-78
2022/03/04 03:09:40;;;;;;;9.57;5.73;;;6.00;1.00;;;;;;5071306;28;20441;-78
2022/03/04 03:12:09;;;;;;;10.03;6.60;;;6.10;1.00;;;;;;5090949;28;20472;-78
2022/03/04 03:14:39;;;;;;;12.20;7.00;;;6.00;1.00;;;;;;5085906;28;20561;-77
2022/03/04 03:17:07;;;;;;;12.03;7.23;;;6.00;1.00;;;;;;5084465;28;20447;-79
2022/03/04 03:19:35;;;;;;;10.33;7.13;;;6.00;1.00;;;;;;5087548;28;20461;-77
2022/03/04 03:22:04;;;;;;;11.63;7.17;;;5.90;1.00;;;;;;5084054;28;21024;-77
2022/03/04 03:24:32;;;;;;;10.50;7.47;;;5.90;1.00;;;;;;5084526;28;20965;-77
2022/03/04 03:27:01;;;;;;;11.50;7.80;;;5.90;1.00;;;;;;5082804;28;20533;-78
2022/03/04 03:29:29;;;;;;;11.73;7.50;;;5.90;1.00;;;;;;5082813;28;20459;-79
2022/03/04 03:31:58;;;;;;;9.70;8.00;;;5.90;1.00;;;;;;5082726;28;20485;-78
2022/03/04 03:34:27;;;;;;;9.97;7.00;;;5.90;1.00;;;;;;5085290;28;20195;-78
2022/03/04 03:36:55;;;;;;;15.50;7.50;;;5.90;1.00;;;;;;5083513;28;20494;-78
2022/03/04 03:39:23;;;;;;;13.02;7.43;;;5.90;1.00;;;;;;5081760;28;20509;-78
2022/03/04 03:41:51;;;;;;;9.00;6.70;;;5.90;1.00;;;;;;5090462;28;20199;-77
2022/03/04 03:44:19;;;;;;;11.90;6.27;;;5.90;1.00;;;;;;5096624;28;20458;-79
2022/03/04 03:46:48;;;;;;;11.63;6.60;;;5.80;1.00;;;;;;5084836;28;20470;-78
2022/03/04 03:49:18;;;;;;;11.30;7.77;;;5.70;1.00;;;;;;5085158;28;20454;-78
2022/03/04 03:51:46;;;;;;;11.80;7.73;;;5.70;1.00;;;;;;5088112;28;20530;-79
2022/03/04 03:54:14;;;;;;;14.93;7.60;;;5.70;1.00;;;;;;5089713;28;20473;-79
2022/03/04 03:56:42;;;;;;;12.33;8.00;;;5.70;1.00;;;;;;5086366;28;20480;-77
2022/03/04 03:59:10;;;;;;;10.35;6.78;;;5.60;1.00;;;;;;5086312;28;20465;-77
2022/03/04 04:01:39;;;;;;;13.18;6.70;;;5.60;1.00;;;;;;5073032;28;20217;-77
2022/03/04 04:04:08;;;;;;;12.77;8.27;;;5.70;1.00;;;;;;5087864;28;20286;-77
2022/03/04 04:06:38;;;;;;;7.40;5.97;;;5.60;1.00;;;;;;5081960;28;20662;-78
2022/03/04 04:09:06;;;;;;;14.37;7.83;;;5.60;1.00;;;;;;5087350;28;20192;-77
2022/03/04 04:11:35;;;;;;;10.88;8.05;;;5.60;1.00;;;;;;5086757;28;20453;-78
2022/03/04 04:14:03;;;;;;;10.83;7.53;;;5.50;1.00;;;;;;5085295;28;20224;-78
2022/03/04 04:16:32;;;;;;;13.83;7.57;;;5.50;1.00;;;;;;5091234;28;21047;-77
2022/03/04 04:19:00;;;;;;;8.20;6.67;;;5.50;1.00;;;;;;5090317;28;20519;-78
2022/03/04 04:21:28;;;;;;;10.20;6.57;;;5.40;1.00;;;;;;5090366;28;20550;-77
2022/03/04 04:23:58;;;;;;;10.97;6.77;;;5.50;1.00;;;;;;5089720;28;20464;-76
2022/03/04 04:26:26;;;;;;;7.17;6.20;;;5.50;1.00;;;;;;5089130;28;20473;-78
2022/03/04 04:28:55;;;;;;;14.00;8.13;;;5.30;1.00;;;;;;5086490;28;20463;-78
2022/03/04 04:31:23;;;;;;;12.77;7.72;;;5.50;1.00;;;;;;5093907;28;20522;-77
2022/03/04 04:33:52;;;;;;;12.15;7.53;;;5.30;1.00;;;;;;5086601;28;20597;-78
2022/03/04 04:36:21;;;;;;;11.10;7.07;;;5.50;1.00;;;;;;5091251;28;20228;-77
2022/03/04 04:38:49;;;;;;;12.10;8.15;;;5.20;1.00;;;;;;5089521;28;20969;-78
2022/03/04 04:41:19;;;;;;;10.93;7.07;;;5.20;1.00;;;;;;5089283;28;20791;-77
2022/03/04 04:43:47;;;;;;;14.93;7.50;;;5.30;1.00;;;;;;5089088;28;20457;-78
2022/03/04 04:46:15;;;;;;;9.67;6.90;;;5.30;1.00;;;;;;5088450;28;20482;-78
2022/03/04 04:48:44;;;;;;;9.53;6.90;;;5.70;1.00;;;;;;5088579;28;20462;-78
2022/03/04 04:51:12;;;;;;;8.73;6.13;;;5.40;1.00;;;;;;5090385;28;20766;-77
2022/03/04 04:53:40;;;;;;;10.43;7.03;;;5.70;1.00;;;;;;5093274;28;20470;-77
2022/03/04 04:56:08;;;;;;;11.70;7.13;;;5.30;1.00;;;;;;5092285;28;20477;-78
2022/03/04 04:58:38;;;;;;;12.70;7.70;;;5.50;1.00;;;;;;5084108;28;20462;-79
2022/03/04 05:01:07;;;;;;;11.93;7.45;;;5.20;1.00;;;;;;5086202;28;20196;-78
2022/03/04 05:03:35;;;;;;;11.80;7.18;;;5.20;1.00;;;;;;5084562;28;20213;-76
2022/03/04 05:06:04;;;;;;;9.15;6.88;;;5.20;1.00;;;;;;5089624;28;20933;-77
2022/03/04 05:08:33;;;;;;;10.25;6.85;;;5.20;1.00;;;;;;5087685;28;20192;-79
2022/03/04 05:11:02;;;;;;;10.57;7.57;;;5.20;1.00;;;;;;5084974;28;20326;-78
2022/03/04 05:13:30;;;;;;;10.60;7.10;;;5.20;1.00;;;;;;5086135;28;20208;-78
2022/03/04 05:16:00;;;;;;;12.10;6.80;;;5.20;1.00;;;;;;5087506;28;20480;-78
2022/03/04 05:18:28;;;;;;;9.48;5.95;;;5.20;1.00;;;;;;5086640;28;20936;-78
2022/03/04 05:20:57;;;;;;;9.90;6.10;;;5.10;1.00;;;;;;5085820;28;20326;-78
2022/03/04 05:26:11;;;;;;;10.00;6.05;;;5.20;1.00;;;;;;5087802;28;20246;-78
2022/03/04 05:28:39;;;;;;;15.77;7.35;;;5.10;1.00;;;;;;5086481;28;20275;-79
2022/03/04 05:31:09;;;;;;;8.07;7.28;;;5.00;1.00;;;;;;5090385;28;20306;-79
2022/03/04 05:33:37;;;;;;;11.00;6.77;;;5.00;1.00;;;;;;5090384;28;20245;-79
2022/03/04 05:36:06;;;;;;;9.02;6.78;;;5.30;1.00;;;;;;5087086;28;20561;-78
2022/03/04 05:38:34;;;;;;;8.95;6.68;;;5.10;1.00;;;;;;5087331;28;20898;-78
2022/03/04 05:41:02;;;;;;;18.42;7.53;;;5.00;1.00;;;;;;5086996;28;20766;-80
2022/03/04 05:43:31;;;;;;;9.43;6.53;;;5.10;1.00;;;;;;5090434;28;20219;-78
2022/03/04 05:45:59;;;;;;;12.37;6.20;;;5.00;1.00;;;;;;5084438;28;20220;-78
2022/03/04 05:48:29;;;;;;;8.97;6.77;;;5.00;1.00;;;;;;5079482;28;20460;-78
2022/03/04 05:50:58;;;;;;;9.13;6.20;;;5.00;1.00;;;;;;5080716;28;20530;-79
2022/03/04 05:53:26;;;;;;;9.87;7.27;;;5.00;1.00;;;;;;5084133;28;20216;-79
2022/03/04 05:55:55;;;;;;;12.60;7.18;;;5.00;1.00;;;;;;5085328;28;20536;-79
2022/03/04 05:58:23;;;;;;;11.50;7.83;;;5.00;1.00;;;;;;5082205;28;20199;-79
2022/03/04 06:00:51;;;;;;;10.32;7.07;;;5.00;1.00;;;;;;5083859;28;20453;-78
2022/03/04 06:03:20;;;;;;;10.70;7.30;;;4.90;1.00;;;;;;5087463;28;20568;-78
2022/03/04 06:05:49;;;;;;;8.03;6.90;;;4.90;1.00;;;;;;5083571;28;20213;-79
2022/03/04 06:08:17;;;;;;;7.20;5.82;;;4.90;1.00;;;;;;5085363;28;20458;-79
2022/03/04 06:10:46;;;;;;;12.15;7.18;;;4.90;1.00;;;;;;5088558;28;20291;-78
2022/03/04 06:13:15;;;;;;;11.45;7.13;;;4.90;1.00;;;;;;5086895;28;20191;-78
2022/03/04 06:15:43;;;;;;;11.60;7.50;;;4.90;1.00;;;;;;5083739;28;20222;-77
2022/03/04 06:18:11;;;;;;;11.52;6.25;;;4.90;1.00;;;;;;5079635;28;20470;-77
2022/03/04 06:20:39;;;;;;;9.20;6.70;;;4.90;1.00;;;;;;5088273;28;20212;-78
2022/03/04 06:23:09;;;;;;;8.97;6.20;;;5.00;1.00;;;;;;5089444;28;20453;-77
2022/03/04 06:25:37;;;;;;;10.13;7.20;;;4.90;1.00;;;;;;5082433;28;20502;-78
2022/03/04 06:28:06;;;;;;;10.88;6.80;;;4.80;1.00;;;;;;5077041;28;20624;-79
2022/03/04 06:30:37;;;;;;;10.10;7.53;;;4.80;1.00;;;;;;5085898;28;20212;-77
2022/03/04 06:35:53;;;;;;;13.48;7.45;;;4.80;1.00;;;;;;5085063;28;20451;-75
2022/03/04 06:38:23;;;;;;;14.45;8.10;;;4.70;1.00;;;;;;5079148;28;20211;-75
2022/03/04 06:40:52;;;;;;;12.43;8.57;;;4.70;1.00;;;;;;5080293;28;20516;-78
2022/03/04 06:43:21;;;;;;;14.55;10.23;;;4.70;1.00;;;;;;5082554;28;20439;-78
2022/03/04 06:45:49;;;;;;;11.40;8.70;;;4.70;1.00;;;;;;5081287;28;20535;-78
2022/03/04 06:48:19;;;;;;;11.82;7.97;;;4.70;1.00;;;;;;5083208;28;20446;-76
2022/03/04 06:50:47;;;;;;;10.00;6.85;;;4.70;1.00;;;;;;5083901;28;20204;-77
2022/03/04 06:53:15;;;;;;;12.98;7.72;;;4.80;1.00;;;;;;5082232;28;20208;-77
2022/03/04 06:55:46;;;;;;;12.10;6.30;;;4.90;1.00;;;;;;5082468;28;20278;-80
2022/03/04 06:58:14;;;;;;;9.02;7.20;;;4.90;1.00;;;;;;5083911;28;20257;-77
2022/03/04 07:00:43;;;;;;;12.07;7.53;;;5.00;1.00;;;;;;5082832;28;20673;-77
2022/03/04 07:03:11;;;;;;;11.30;8.15;;;5.00;1.00;;;;;;5077107;28;20446;-78
2022/03/04 07:05:40;;;;;;;11.48;7.30;;;5.10;1.00;;;;;;5082466;28;20208;-78
2022/03/04 07:08:11;;;;;;;11.18;7.55;;;5.30;1.00;;;;;;5076192;28;20199;-78
2022/03/04 07:10:40;;;;;;;11.05;6.30;;;5.00;1.00;;;;;;5080054;28;20200;-77
2022/03/04 07:13:09;;;;;;;14.10;8.30;;;5.00;1.00;;;;;;5081988;28;20260;-77
2022/03/04 07:15:38;;;;;;;13.52;10.38;;;5.10;1.00;;;;;;5080804;28;21156;-78
2022/03/04 07:18:06;;;;;;;16.95;10.70;;;5.20;1.00;;;;;;5082369;28;20444;-78
2022/03/04 07:20:34;;;;;;;13.47;8.90;;;5.20;1.00;;;;;;5084489;28;20257;-77
2022/03/04 07:23:03;;;;;;;12.63;9.93;;;5.30;1.00;;;;;;5078698;28;20957;-78
2022/03/04 07:25:31;;;;;;;11.53;7.50;;;5.40;1.00;;;;;;5081393;28;20503;-79
2022/03/04 07:28:00;;;;;;;19.37;8.10;;;5.40;1.00;;;;;;5078987;28;20444;-78
2022/03/04 07:30:30;;;;;;;16.63;8.77;;;5.40;1.00;;;;;;5078061;28;20477;-78
2022/03/04 07:32:58;;;;;;;13.50;8.67;;;5.50;1.00;;;;;;5079950;28;20458;-77
2022/03/04 07:35:27;;;;;;;10.85;7.50;;;5.60;1.00;;;;;;5074988;28;21054;-79
2022/03/04 07:37:56;;;;;;;10.40;8.37;;;5.70;1.00;;;;;;5083330;28;20203;-79
2022/03/04 07:40:24;;;;;;;13.07;8.53;;;5.70;1.00;;;;;;5083671;28;20461;-80
2022/03/04 07:42:52;;;;;;;13.45;8.45;;;5.60;1.00;;;;;;5083839;28;20500;-78
2022/03/04 07:45:20;;;;;;;12.10;8.20;;;5.70;1.00;;;;;;5086948;28;20224;-78
2022/03/04 07:47:50;;;;;;;11.13;7.67;;;5.70;1.00;;;;;;5078745;28;20461;-78
2022/03/04 07:50:18;;;;;;;15.93;9.00;;;5.80;1.00;;;;;;5077388;28;20461;-77
2022/03/04 07:52:50;;;;;;;10.23;8.30;;;5.90;1.00;;;;;;5085155;28;20462;-78
2022/03/04 07:55:18;;;;;;;9.17;7.83;;;5.90;1.00;;;;;;5086471;28;20473;-78
2022/03/04 07:57:47;;;;;;;14.07;9.00;;;5.90;1.00;;;;;;5080476;28;20461;-78
2022/03/04 08:00:17;;;;;;;11.03;8.10;;;6.20;1.00;;;;;;5085398;28;20438;-77
2022/03/04 08:02:45;;;;;;;14.10;9.30;;;6.10;1.00;;;;;;5080885;28;20453;-78
2022/03/04 08:05:15;;;;;;;14.80;8.77;;;6.40;1.00;;;;;;5081086;28;20462;-78
2022/03/04 08:07:43;;;;;;;13.47;10.00;;;6.70;1.00;;;;;;5079762;28;20442;-79
2022/03/04 08:10:12;;;;;;;14.87;10.30;;;7.00;1.00;;;;;;5083252;28;20481;-77
2022/03/04 08:12:41;;;;;;;16.43;11.53;;;7.30;1.00;;;;;;5086946;28;20500;-77
2022/03/04 08:15:12;;;;;;;14.90;10.60;;;7.60;1.00;;;;;;5082787;28;20490;-79
2022/03/04 08:17:41;;;;;;;15.40;10.03;;;7.90;1.00;;;;;;5085602;28;20466;-78
2022/03/04 08:20:10;;;;;;;14.38;11.30;;;8.10;1.00;;;;;;5083654;28;20452;-78
2022/03/04 08:22:40;;;;;;;18.87;10.20;;;8.30;1.00;;;;;;5087442;28;20210;-78
2022/03/04 08:25:09;;;;;;;19.10;9.93;;;8.70;1.00;;;;;;5088408;28;20471;-79
2022/03/04 08:27:39;;;;;;;15.10;10.70;;;9.00;1.00;;;;;;5078446;28;20452;-78
2022/03/04 08:30:08;;;;;;;15.63;9.80;;;9.20;1.00;;;;;;5081074;28;20452;-77
2022/03/04 08:32:37;;;;;;;18.70;10.13;;;9.40;1.00;;;;;;5086565;28;21266;-76
2022/03/04 08:35:06;;;;;;;12.73;9.30;;;9.70;1.00;;;;;;5082426;28;20492;-77
2022/03/04 08:37:35;;;;;;;13.87;10.60;;;9.90;1.00;;;;;;5085323;28;20471;-78
2022/03/04 08:40:08;;;;;;;16.40;9.60;;;10.10;1.00;;;;;;5093280;28;21011;-78
2022/03/04 08:42:36;;;;;;;16.27;10.27;;;10.10;1.00;;;;;;5081084;28;20474;-78
2022/03/04 08:45:06;;;;;;;15.17;10.27;;;10.40;1.00;;;;;;5085820;28;20472;-80
2022/03/04 08:47:34;;;;;;;15.63;9.90;;;10.60;1.00;;;;;;5085116;28;20470;-78
2022/03/04 08:50:03;;;;;;;16.00;10.55;;;10.80;1.00;;;;;;5082753;28;21202;-78
2022/03/04 08:52:31;;;;;;;14.37;10.33;;;11.00;1.00;;;;;;5086333;28;20288;-78
2022/03/04 08:55:00;;;;;;;15.30;10.30;;;11.20;1.00;;;;;;5085485;28;20474;-78
2022/03/04 08:57:31;;;;;;;13.57;9.93;;;11.40;1.00;;;;;;5076864;28;20459;-78
2022/03/04 09:00:02;;;;;;;15.13;10.20;;;11.60;1.00;;;;;;5079865;28;20461;-78
2022/03/04 09:02:30;;;;;;;17.60;10.90;;;11.70;1.00;;;;;;5078924;28;20520;-77
2022/03/04 09:04:59;;;;;;;14.93;10.10;;;11.90;1.00;;;;;;5084632;28;20558;-78
2022/03/04 09:07:27;;;;;;;14.20;9.37;;;12.10;1.00;;;;;;5082353;28;20453;-77
2022/03/04 09:09:56;;;;;;;18.20;10.00;;;12.40;1.00;;;;;;5080576;28;20448;-79
2022/03/04 09:12:24;;;;;;;17.43;11.27;;;12.60;1.00;;;;;;5082659;28;20983;-79
2022/03/04 09:14:54;;;;;;;20.87;11.40;;;12.70;1.00;;;;;;5079241;28;20455;-79
2022/03/04 09:17:22;;;;;;;18.15;11.50;;;12.80;1.00;;;;;;5088995;28;20816;-80
2022/03/04 09:19:50;;;;;;;13.77;11.20;;;13.00;1.00;;;;;;5089937;28;20682;-79
2022/03/04 09:22:25;;;;;;;19.20;11.17;;;13.30;1.00;;;;;;5087783;28;20463;-79
2022/03/04 09:24:53;;;;;;;16.07;10.33;;;13.60;1.00;;;;;;5088522;28;20469;-80
2022/03/04 09:27:22;;;;;;;15.60;10.83;;;13.90;1.00;;;;;;5089892;28;20447;-82
2022/03/04 09:29:50;;;;;;;13.90;9.90;;;14.10;1.00;;;;;;5073820;28;20450;-80
2022/03/04 09:32:19;;;;;;;18.93;10.43;;;14.30;1.00;;;;;;5084115;28;20436;-78
2022/03/04 09:34:48;;;;;;;13.00;10.10;;;14.40;1.00;;;;;;5081150;28;20469;-80
2022/03/04 09:37:16;;;;;;;15.20;10.80;;;14.50;1.00;;;;;;5084298;28;20487;-79
2022/03/04 09:39:44;;;;;;;16.17;11.03;;;14.80;1.00;;;;;;5089699;28;20461;-79
2022/03/04 09:42:13;;;;;;;16.70;11.60;;;14.90;1.00;;;;;;5089020;28;20494;-80
2022/03/04 09:44:42;;;;;;;16.17;11.13;;;15.10;1.00;;;;;;5086459;28;20455;-80
2022/03/04 09:47:11;;;;;;;13.77;12.00;;;15.20;1.00;;;;;;5075107;28;20432;-79
2022/03/04 09:49:41;;;;;;;14.67;11.23;;;15.50;1.00;;;;;;5080561;28;20210;-79
2022/03/04 09:52:09;;;;;;;15.63;10.90;;;15.70;1.00;;;;;;5079055;28;20543;-78
2022/03/04 09:54:37;;;;;;;15.70;10.50;;;15.70;1.00;;;;;;5086168;28;20559;-79
2022/03/04 09:57:06;;;;;;;16.33;11.60;;;15.90;1.00;;;;;;5088171;28;20892;-80
2022/03/04 09:59:34;;;;;;;15.97;11.30;;;16.00;1.00;;;;;;5079942;28;20477;-79
2022/03/04 10:02:03;;;;;;;13.00;10.70;;;16.10;1.00;;;;;;5080236;28;20456;-79
2022/03/04 10:04:33;;;;;;;13.50;11.13;;;16.10;1.00;;;;;;5081291;28;20515;-79
2022/03/04 10:07:11;;;;;;;13.17;10.67;;;16.20;1.00;;;;;;5077761;28;20454;-79
2022/03/04 10:09:42;;;;;;;16.30;11.30;;;16.10;1.00;;;;;;5073837;28;20458;-78
2022/03/04 10:12:12;;;;;;;15.25;11.18;;;16.00;1.00;;;;;;5081629;28;20455;-79
2022/03/04 10:15:00;;;;;;;17.53;11.13;;;16.00;1.00;;;;;;5078863;28;20207;-77
2022/03/04 10:17:31;;;;;;;13.30;10.63;;;15.90;1.00;;;;;;5072410;28;21024;-78
2022/03/04 10:20:01;;;;;;;13.90;10.30;;;15.90;1.00;;;;;;5079577;28;20470;-79
2022/03/04 10:22:38;;;;;;;17.27;10.40;;;16.00;1.00;;;;;;5081540;28;20458;-79
2022/03/04 10:25:18;;;;;;;14.00;10.10;;;16.10;1.00;;;;;;5080631;28;20468;-79
2022/03/04 10:27:47;;;;;;;13.77;10.57;;;16.20;1.00;;;;;;5085137;28;20454;-79
2022/03/04 10:30:16;;;;;;;15.43;11.10;;;16.10;1.00;;;;;;5084571;28;20968;-80
2022/03/04 10:32:44;;;;;;;15.73;10.87;;;16.20;1.00;;;;;;5081338;28;22684;-79
2022/03/04 10:35:14;;;;;;;11.90;10.33;;;16.30;1.00;;;;;;5081886;28;20512;-81
2022/03/04 10:37:47;;;;;;;14.73;10.00;;;16.50;5.40;;;;;;5082760;28;20479;-79
2022/03/04 10:40:17;;;;;;;12.83;10.53;;;16.90;1.00;;;;;;5079126;28;20473;-81
2022/03/04 10:42:48;;;;;;;16.10;10.60;;;17.10;1.00;;;;;;5077248;28;20451;-81
2022/03/04 10:45:19;;;;;;;17.80;12.30;;;17.30;1.00;;;;;;5070543;28;20568;-80
2022/03/04 10:47:51;;;;;;;15.00;11.00;;;17.60;1.60;;;;;;5072656;28;20909;-80
2022/03/04 10:50:25;;;;;;;13.87;11.03;;;17.90;3.20;;;;;;5073634;28;20479;-82
2022/03/04 10:52:58;;;;;;;14.98;11.48;;;17.90;2.80;;;;;;5073298;28;20432;-80
2022/03/04 10:55:39;;;;;;;14.50;10.80;;;18.20;4.40;;;;;;5079719;28;20215;-80
2022/03/04 10:58:14;;;;;;;14.20;10.90;;;18.00;1.70;;;;;;5077067;28;21114;-81
2022/03/04 11:00:44;;;;;;;19.07;11.10;;;17.60;10.60;;;;;;5079959;28;20438;-80
2022/03/04 11:03:17;;;;;;;13.60;10.97;;;17.50;1.00;;;;;;5083597;28;20457;-81
2022/03/04 11:05:46;;;;;;;13.10;9.60;;;17.70;1.00;;;;;;5080912;28;20466;-82
2022/03/04 11:08:16;;;;;;;16.07;11.20;;;17.90;3.30;;;;;;5078750;28;21193;-82
2022/03/04 11:10:45;;;;;;;14.90;10.90;;;18.10;4.70;;;;;;5077911;28;20461;-80
2022/03/04 11:13:13;;;;;;;14.87;11.57;;;18.50;7.20;;;;;;5080936;28;20465;-83
2022/03/04 11:15:43;;;;;;;13.73;9.70;;;18.70;8.60;;;;;;5083553;28;21004;-80
2022/03/04 11:18:14;;;;;;;11.27;10.07;;;18.90;9.90;;;;;;5079594;28;20696;-82
2022/03/04 11:20:44;;;;;;;15.80;11.10;;;19.00;10.70;;;;;;5077204;28;20457;-80
2022/03/04 11:23:21;;;;;;;15.57;11.83;;;19.20;12.40;;;;;;5078346;28;20452;-80
2022/03/04 11:25:55;;;;;;;12.73;11.00;;;19.40;13.70;;;;;;5082377;28;20473;-80
2022/03/04 11:28:28;;;;;;;12.37;9.47;;;19.70;16.10;;;;;;5088470;28;20460;-80
2022/03/04 11:31:00;;;;;;;12.77;10.93;;;19.90;17.50;;;;;;5084640;28;20449;-78
2022/03/04 11:33:31;;;;;;;13.03;10.60;;;19.70;15.30;;;;;;5082491;28;20544;-80
2022/03/04 11:36:08;;;;;;;15.40;11.73;;;19.40;12.40;;;;;;5086330;28;20522;-81
2022/03/04 11:38:59;;;;;;;14.73;11.07;;;19.20;10.80;;;;;;5077181;28;21004;-80
2022/03/04 11:41:34;;;;;;;12.17;9.13;;;18.90;7.90;;;;;;5076828;28;20461;-81
2022/03/04 11:44:14;;;;;;;17.03;10.90;;;18.60;5.10;;;;;;5086217;28;20487;-80
2022/03/04 11:46:48;;;;;;;14.40;10.63;;;18.40;4.00;;;;;;5081791;28;21038;-80
2022/03/04 11:49:32;;;;;;;15.03;10.70;;;18.00;1.00;;;;;;5084305;28;20446;-81
2022/03/04 11:52:19;;;;;;;13.30;10.00;;;17.50;1.00;;;;;;5083363;28;20449;-80
2022/03/04 11:55:13;;;;;;;12.17;9.33;;;17.50;1.00;;;;;;5084408;28;21095;-80
2022/03/04 11:57:44;;;;;;;10.87;9.13;;;17.40;1.00;;;;;;5082062;28;20466;-79
2022/03/04 12:00:33;;;;;;;11.50;9.23;;;17.20;1.00;;;;;;5087734;28;20461;-79
2022/03/04 12:03:15;;;;;;;11.90;8.52;;;16.90;1.00;;;;;;5088090;28;20444;-81
2022/03/04 12:05:52;;;;;;;9.00;6.60;;;16.80;1.00;;;;;;5087285;28;20704;-80
2022/03/04 12:08:20;;;;;;;8.97;7.10;;;16.90;1.00;;;;;;5086648;28;20465;-81
2022/03/04 12:10:56;;;;;;;18.60;8.57;;;16.90;1.00;;;;;;5092918;28;20449;-81
2022/03/04 12:13:26;;;;;;;11.97;7.90;;;16.80;1.00;;;;;;5082368;28;20502;-80
2022/03/04 12:15:58;;;;;;;14.20;9.87;;;16.60;1.00;;;;;;5087920;28;20480;-80
2022/03/04 12:18:31;;;;;;;13.00;8.43;;;16.50;1.00;;;;;;5083695;28;20484;-80
2022/03/04 12:21:25;;;;;;;10.60;8.27;;;16.20;1.00;;;;;;5088121;28;20991;-80
2022/03/04 12:23:59;;;;;;;12.60;9.47;;;16.00;1.00;;;;;;5086764;28;20460;-79
2022/03/04 12:26:45;;;;;;;10.27;8.07;;;16.00;1.00;;;;;;5084236;28;20472;-81
2022/03/04 12:29:15;;;;;;;13.00;9.33;;;15.80;1.00;;;;;;5086715;28;20501;-80
2022/03/04 12:31:44;;;;;;;14.10;9.50;;;15.90;1.00;;;;;;5079169;28;20481;-80
2022/03/04 12:34:19;;;;;;;13.23;8.90;;;15.80;1.00;;;;;;5085600;28;20696;-80
2022/03/04 12:36:48;;;;;;;11.73;9.30;;;15.90;1.00;;;;;;5086460;28;20484;-79
2022/03/04 12:39:20;;;;;;;15.67;9.60;;;15.80;1.00;;;;;;5086705;28;21190;-79
2022/03/04 12:41:55;;;;;;;12.80;8.83;;;15.80;1.00;;;;;;5089112;28;20448;-79
2022/03/04 12:44:27;;;;;;;11.80;9.13;;;15.90;1.00;;;;;;5087813;28;20460;-82
2022/03/04 12:46:56;;;;;;;11.83;9.10;;;16.00;1.00;;;;;;5087450;28;20552;-81
2022/03/04 12:49:29;;;;;;;11.37;8.33;;;15.80;1.00;;;;;;5086093;28;20478;-80
2022/03/04 12:51:58;;;;;;;12.88;10.05;;;15.90;1.00;;;;;;5082722;28;20495;-79
2022/03/04 12:54:30;;;;;;;12.97;9.27;;;16.00;1.00;;;;;;5092819;28;20224;-78
2022/03/04 12:57:07;;;;;;;13.13;10.60;;;15.90;1.00;;;;;;5087402;28;20464;-78
2022/03/04 12:59:46;;;;;;;15.23;10.53;;;15.80;1.00;;;;;;5091710;28;20452;-81
2022/03/04 13:02:15;;;;;;;13.70;9.50;;;15.70;1.00;;;;;;5093751;28;20856;-78
2022/03/04 13:04:57;;;;;;;14.07;9.60;;;15.70;1.00;;;;;;5100965;28;20516;-79
2022/03/04 13:07:26;;;;;;;12.33;8.77;;;15.60;1.00;;;;;;5090053;28;20450;-82
2022/03/04 13:09:57;;;;;;;12.13;9.80;;;15.50;1.00;;;;;;5087932;28;20451;-79
2022/03/04 13:12:26;;;;;;;16.10;10.53;;;15.60;1.00;;;;;;5083018;28;20556;-79